ENNA

Banak Airport

Lakselv, Norway
METAR ENNA 190620Z AUTO 16008KT 9999 NCD M14/M17 Q0998 RMK WIND 1800FT 27010KT
Observed Flight Rules
Jan-19 @ 06:20 UTC (23 minutes ago) Visual Flight Rules
Wind Visibility Clouds
160° at 8 knots 10,000+ meters
  • Clear skies
Temperatures Readings
Current -14°C / 7°F
Dewpoint -17°C / 1°F
Humidity 78%
Altimeter 29.47" Hg
Pressure 997.92 hPa
Elevation 8
METAR ENNA 190620Z AUTO 16008KT 9999 NCD M14/M17 Q0998 RMK WIND 1800FT 27010KT
Observed Flight Rules
Jan-19 @ 06:20 UTC
(23 minutes ago)
VFR
Wind Visibility
160° at 8 knots 10,000+ meters
Clouds
  • Clear skies
Temperature Dewpoint
-14°C / 7°F -17°C / 1°F
Humidity Altimeter Pressure
78% 29.47" Hg 997.92 hPa